Following are Alpine Race Results and Penalty Report


Ski Race Results generated by:
     USSA Race Software, Alpine/Snowboard/Cross Country Version 6.24
     Software written by Split Second, Inc.   www.SplitSecond.com


~~~~~~~~~~~~~~~~~~~~~~~~~~~~~~~~~~~~~~~~~~~~~~~~~~~~~~~~~~~~~~~~~~~~~~~~~~~~~~~~
                       U.S. SKI AND SNOWBOARD ASSOCIATION                       

                               ERIC HAYS MEMORIAL                               

                            USSA RACE CODE No. U0641                            
Park City Ski Team                                             DECEMBER 15, 2011
Park City Mountain Resort                                          Intermountain
--------------------------------------------------------------------------------

                          S L A L O M     L A D I E S                           
                                OFFICIAL RESULTS                                

JURY                                          TECHNICAL DATA

TD               R. KEITH          (USA)      COURSE                  PAYDAY RUN
REFEREE          F. WOOD           (USA)      START                       2268 M
CHIEF OF RACE    J. HUNT           (USA)      FINISH                      2145 M
                                              VERTICAL DROP                123 M
                                              
                                              HOMOLOG.Nr.             U426/11/09


                 1st RUN                          2nd RUN
COURSE SETTER    C. JAMIESON       (USA)          E. HOGAN          (USA)
FORERUNNERS  -A- B. SKINNER        (USA)      -A- T. JALILI         (USA)
             -B- C. PROBERT        (USA)      -B- M. MCGURL         (USA)
             -C- B. SKINNER        (USA)      -C- B. SKINNER        (USA)
             -D-                              -D- 
             -E-                              -E- 

GATES/DIR CHANGES   46/(45)                          44/(42)
START TIME        9.30                            13.00
WEATHER: CLEAR                SNOW: PACKED POWDER         TEMP. S: -9 C F: -8 C
-----------------------    UNOFFICIAL PENALTY   54.58    -----------------------
                                                                          F=610
 PL BIB  USSA    COMPETITOR---------------------   TIME    TIME    TOTAL    RACE
     Nr  Nr      SURNAME+NAME            CLUB/YR  1stRUN  2ndRUN    TIME  POINTS

  1  11 I5133541 Kelley, Jessica C       PCST/82   41.94   42.23 1:24.17    0.00
  2  13 I5970439 Frankenburg, Sophia     PCST/94   41.64   42.55 1:24.19    0.14
  3   3 I5908710 Jobe, Anna                RM/95   44.14   42.76 1:26.90   19.78
  4   4 I5851548 Morrison, Fiona         PCST/94   43.64   43.89 1:27.53   24.35
  5   6 I6028138 Hunsaker, Hannah        PCST/95   43.44   44.17 1:27.61   24.93
  6  12 I6035398 Totten, Mary              BB/95   43.81   43.85 1:27.66   25.29
  7   1 I6061568 Polukoff, Natalya E     PCST/95   43.78   43.95 1:27.73   25.80
  8  19 I6028161 Jakob, Rachel           PCST/95   43.91   44.69 1:28.60   32.11
  9  16 I6061766 Busby, Samantha         SVST/97   44.30   44.67 1:28.97   34.79
 10   5 I5981709 Leavens, Emily          PCST/95   44.34   44.71 1:29.05   35.37
 11  15 I6068134 Polenz, Alexis          PCST/96   45.16   43.97 1:29.13   35.95
      7 I5947122 Stelling, Amanda        SVST/94   44.83   44.30 1:29.13   35.95
 13  10 I5964515 Wright, Isabella        JHSC/97   47.44   42.01 1:29.45   38.27
 14  25 I5926688 Wilson, Cassidy         PCST/95   44.60   44.90 1:29.50   38.63
 15  63 I6059554 Baer, Liz                 RM/98   45.11   44.73 1:29.84   41.09


15-12-11 / Park City Mountain ResortLIST: NLW512               U0641     SF8 / 1
--------------------------------------------------------------------------------
DATA PROCESSING BY USSA SOFTWARE                            TAG-Heuer 705 TIMING
~~~~~~~~~~~~~~~~~~~~~~~~~~~~~~~~~~~ NEW PAGE ~~~~~~~~~~~~~~~~~~~~~~~~~~~~~~~~~~~
                       U.S. SKI AND SNOWBOARD ASSOCIATION                       

                               ERIC HAYS MEMORIAL                               

                            USSA RACE CODE No. U0641                            
Park City Ski Team                                             DECEMBER 15, 2011
Park City Mountain Resort                                          Intermountain
--------------------------------------------------------------------------------

 PL BIB  USSA    COMPETITOR---------------------   TIME    TIME    TOTAL    RACE
     Nr  Nr      SURNAME+NAME            CLUB/YR  1stRUN  2ndRUN    TIME  POINTS

 16   2 I6044622 Munday, Morgan            RM/95   45.27   44.74 1:30.01   42.32
 17  17 I6070395 Minniear, Cheech M      PCST/95   44.32   46.16 1:30.48   45.73
 18  32 I5997168 Tauber, Kristina        PCST/96   45.46   45.25 1:30.71   47.40
 19  21 I6017560 Torres, Isabel            RM/97   45.70   45.34 1:31.04   49.79
 20  18 I6125439 Benzon, Kaya S            SB/97   45.49   46.14 1:31.63   54.06
 21  27 X6009609 Bougri, Zina              BB/94   46.20   45.82 1:32.02   56.89
 22  23 I5935804 Hendrickson, Hannah     PCST/94   46.17   46.23 1:32.40   59.64
 23  22 I6081863 Dewolfe, Sofia          SVST/95   46.68   46.07 1:32.75   62.18
 24  29 I6041925 LaMere, Devan           JHSC/97   46.37   46.52 1:32.89   63.20
 25  28 I6060446 Allison, Josie          SVST/97   46.66   46.44 1:33.10   64.72
 26  14 I5878087 Petersen, Lauren          SB/96   46.54   46.72 1:33.26   65.88
 27  30 I6059992 Murphy, Megan           SVST/97   47.38   46.50 1:33.88   70.37
 28  52 I6048029 Smith, Sophie           PCST/98   47.75   46.17 1:33.92   70.66
 29  20 I5905088 Gibbs, Sarah              SB/95   46.39   47.55 1:33.94   70.81
 30   9 I5877097 Shettig, Hayden         PCST/96   50.00   44.01 1:34.01   71.31
 31  24 I6084438 Dingman, Megan          PCST/97   47.91   46.86 1:34.77   76.82
 32  33 I5942792 Harris, Sydney          MSRT/97   47.95   47.67 1:35.62   82.98
 33  56 I6165385 Andreini, Olivia        PCST/98   47.87   48.08 1:35.95   85.37
 34  67 I6133805 Debaun, Sadie           PCST/98   48.29   47.78 1:36.07   86.24
 35  31 I6060008 Milgard, Madison        SVST/97   48.53   47.99 1:36.52   89.50
 36  75 I6187827 Thomas, Claire          PCST/98   48.52   48.11 1:36.63   90.30
 37  38 I6060412 Black, Alexandra K      SVST/97   49.08   48.56 1:37.64   97.62
 38  42 X6065510 Robinson, Jana          OVST/97   50.11   48.85 1:38.96  107.19
 39  36 I6187918 Hoyt, Amy               PCST/96   49.85   49.24 1:39.09  108.13
 40  58 I6130470 Mazzoni, Ava            MSRT/98   50.23   48.98 1:39.21  109.00
 41  49 I6109664 Demuro, Alanna          JHSC/98   50.57   49.08 1:39.65  112.19
 42  69 I6125801 Davis, Ariana E           SB/98   49.96   49.78 1:39.74  112.84
 43  60 I6054068 Armstrong, Payton M     MSRT/98   50.81   49.29 1:40.10  115.45
 44  39 I5881735 Warner, Beth            MSRT/96   50.46   49.78 1:40.24  116.46
 45  35 I6061543 Turok, Sophie             SB/97   50.17   50.08 1:40.25  116.54
 46  54 I6084024 Anderson, Laura B       OVST/98   50.84   49.59 1:40.43  117.84
 47  37 I6060263 Wentzell, Olivia        SVST/97   50.26   50.35 1:40.61  119.14
 48  41 I6239603 Betebenner, Molly         SB/97   51.44   51.32 1:42.76  134.73
 49  76 I6100556 Greene, Nicole          PCST/98   51.81   51.56 1:43.37  139.15
 50  64 I6098917 Chilton, Brook           PBC/98   52.60   51.45 1:44.05  144.08
 51  70 I6094312 Nickell, Elisabeth       PBC/98   52.75   51.44 1:44.19  145.09
 52  44 I6048375 Esposito, Sabrina       OVST/96   52.70   51.97 1:44.67  148.57
 53  48 I6170815 Boomer, Fiona           OVST/96   53.18   52.82 1:46.00  158.21
 54  43 I6062236 Unser, Loni             SVST/97   53.82   53.01 1:46.83  164.22
 55  59 I6305365 Mcintyre, Emily N         SB/98   55.00   51.86 1:46.86  164.44
 56  77 I6060107 Griffith, Margot        SVST/98   53.99   53.54 1:47.53  169.30
 57  72 I6097778 Westermann, Lia           SB/98   54.45   53.19 1:47.64  170.09

15-12-11 / Park City Mountain ResortLIST: NLW512               U0641     SF8 / 2
--------------------------------------------------------------------------------
DATA PROCESSING BY USSA SOFTWARE                            TAG-Heuer 705 TIMING
~~~~~~~~~~~~~~~~~~~~~~~~~~~~~~~~~~~ NEW PAGE ~~~~~~~~~~~~~~~~~~~~~~~~~~~~~~~~~~~
                       U.S. SKI AND SNOWBOARD ASSOCIATION                       

                               ERIC HAYS MEMORIAL                               

                            USSA RACE CODE No. U0641                            
Park City Ski Team                                             DECEMBER 15, 2011
Park City Mountain Resort                                          Intermountain
--------------------------------------------------------------------------------

 PL BIB  USSA    COMPETITOR---------------------   TIME    TIME    TOTAL    RACE
     Nr  Nr      SURNAME+NAME            CLUB/YR  1stRUN  2ndRUN    TIME  POINTS

 58  65 I6083406 Chai, Mia                 BB/98   54.74   54.46 1:49.20  181.40
 59  46 I6108880 Ellis, Kaitlyn M        MSRT/97   54.99   54.32 1:49.31  182.20
 60  74 I6023394 Milburn, Abigail        MSRT/98   55.29   54.20 1:49.49  183.50
 61  73 I6217244 MacPherson, Hallie      SVST/98   56.46   55.41 1:51.87  200.75
 62  62 I6005821 Church, Summer          MSRT/98   57.89   55.48 1:53.37  211.62
 63  45 I6064927 Novak, Sarah A          KCST/96   55.95   58.16 1:54.11  216.98
 64  66 I6063473 Kochaver, Jessica         BB/98 1:04.72   50.92 1:55.64  228.07
 65  61 I6222095 Hammer, Holly             SB/98 1:00.04   56.24 1:56.28  232.71
 66  53 I6151260 Harelson, Nina           PBC/98   58.99   58.08 1:57.07  238.43
 67  47 I6045801 Oplinger, Sydney          SB/97 1:01.49 1:00.77 2:02.26  276.05
 68  57 I6062137 Vorse, Poppy Ellie      SVST/98 1:10.72   52.30 2:03.02  281.56

DID NOT START 1st RUN
      8 I5811237 Zavala, Linnea            RM/93

DID NOT FINISH 1st RUN
     71 I6190235 Demschar, Isabel        PCST/98
     68 I6073688 Cunningham-ward, Sierra   SB/98
     51 I6123657 Mosher, Hannah E        PCST/98
     50 I6263871 Fleischer, Chloe        PCST/98
     40 I6271280 Tomlinson, Madeline R     SB/94

DISQUALIFIED 1st RUN
     55 I6241673 Abate, Heather          PCST/98   GATE   14

DID NOT START 2nd RUN

DID NOT FINISH 2nd RUN
     26 I6104939 Hochhauser, Sophie        RM/94

DISQUALIFIED 2nd RUN
     34 I6194120 Bois, Neah                SB/97   GATE   33

                                                TECHNICAL DELEGATE

                                                R. KEITH          (USA)







15-12-11 / Park City Mountain ResortLIST: NLW512               U0641     SF8 / 3
--------------------------------------------------------------------------------
DATA PROCESSING BY USSA SOFTWARE                            TAG-Heuer 705 TIMING
~~~~~~~~~~~~~~~~~~~~~~~~~~~~~~~~~~~ NEW PAGE ~~~~~~~~~~~~~~~~~~~~~~~~~~~~~~~~~~~
                       U.S. SKI AND SNOWBOARD ASSOCIATION                       

                               ERIC HAYS MEMORIAL                               

                            USSA RACE CODE No. U0641                            
Park City Ski Team                                             DECEMBER 15, 2011
Park City Mountain Resort                                          Intermountain
--------------------------------------------------------------------------------
                          S L A L O M     L A D I E S                           
                            USSA PENALTY CALCULATION                            

 THE BEST 10 AT FINISH:

  RACE    BIB    CODE   COMPETITOR                     USSA   BEST 5      RACE
 RESULT   NR.           SURNAME+NAME                 POINTS             POINTS

     1     11 I5133541  Kelley, Jessica C             32.57    32.57      0.00
     2     13 I5970439  Frankenburg, Sophia           53.21    53.21      0.14
     3      3 I5908710  Jobe, Anna                    82.28    82.28     19.78
     4      4 I5851548  Morrison, Fiona              101.10
     5      6 I6028138  Hunsaker, Hannah              83.50    83.50     24.93
     6     12 I6035398  Totten, Mary                 105.11
     7      1 I6061568  Polukoff, Natalya E           98.56
     8     19 I6028161  Jakob, Rachel                112.19
     9     16 I6061766  Busby, Samantha              107.95
    10      5 I5981709  Leavens, Emily                80.89    80.89     35.37

 THE BEST 5 AT START:

     1     11 I5133541  Kelley, Jessica C             32.57
     2     13 I5970439  Frankenburg, Sophia           53.21
    13     10 I5964515  Wright, Isabella              64.05
    11      7 I5947122  Stelling, Amanda              65.41
    30      9 I5877097  Shettig, Hayden               78.28

TOTALS                                              --------
(B) USSA POINTS OF BEST 5 AT START                   293.52  --------
(A) USSA POINTS OF BEST 5 TO FINISH IN TOP 10                 332.45   --------
(C)  RACE POINTS OF CORRESPONDING COMPETITORS                            80.22

CALCULATED PENALTY  332.45 + 293.52 -  80.22 : 10  =                     54.575
                      (A)      (B)      (C)

ROUNDED                                                                  54.58

PENALTY APPLIED:                                                         54.58

                                     _______________________
                                     R. KEITH          (USA)

15-12-11 / Park City Mountain ResortLIST: NLW512               U0641     SF9 / 1
--------------------------------------------------------------------------------
DATA PROCESSING BY USSA SOFTWARE                            TAG-Heuer 705 TIMING
~~~~~~~~~~~~~~~~~~~~~~~~~~~~~~~~~~~ NEW PAGE ~~~~~~~~~~~~~~~~~~~~~~~~~~~~~~~~~~~